createdAt,value
2022-10-05T00:00:22.509Z,11.85
2022-10-05T00:02:52.595Z,20.00
2022-10-05T00:05:34.557Z,11.73
2022-10-05T00:08:24.739Z,12.80
2022-10-05T00:10:53.026Z,11.68
2022-10-05T00:13:29.807Z,13.82
2022-10-05T00:16:06.495Z,16.73
2022-10-05T00:18:33.909Z,16.95
2022-10-05T00:21:02.088Z,14.40
2022-10-05T00:23:31.967Z,16.35
2022-10-05T00:26:26.838Z,14.82
2022-10-05T00:28:55.435Z,15.27
2022-10-05T00:31:33.243Z,18.80
2022-10-05T00:34:00.869Z,16.50
2022-10-05T00:36:28.394Z,14.88
2022-10-05T00:38:55.900Z,15.35
2022-10-05T00:41:47.556Z,16.77
2022-10-05T00:44:20.774Z,13.35
2022-10-05T00:47:09.930Z,14.52
2022-10-05T00:49:55.613Z,14.07
2022-10-05T00:52:47.262Z,13.23
2022-10-05T00:55:28.423Z,10.50
2022-10-05T00:58:48.316Z,16.52
2022-10-05T01:01:52.243Z,12.63
2022-10-05T01:04:54.278Z,12.82
2022-10-05T01:08:00.322Z,12.63
2022-10-05T01:10:56.400Z,11.73
2022-10-05T01:13:57.472Z,12.20
2022-10-05T01:19:25.635Z,14.00
2022-10-05T01:22:10.312Z,12.98
2022-10-05T01:24:52.579Z,14.75
2022-10-05T01:27:43.630Z,15.18
2022-10-05T01:30:17.701Z,13.48
2022-10-05T01:33:12.478Z,17.73
2022-10-05T01:35:55.148Z,12.07
2022-10-05T01:38:22.510Z,14.17
2022-10-05T01:41:12.487Z,14.27
2022-10-05T01:43:55.545Z,11.32
2022-10-05T01:46:39.286Z,14.75
2022-10-05T01:49:23.951Z,16.63
2022-10-05T01:52:10.105Z,13.55
2022-10-05T01:55:02.001Z,11.73
2022-10-05T01:57:47.949Z,18.50
2022-10-05T02:00:19.004Z,13.98
2022-10-05T02:02:52.813Z,14.85
2022-10-05T02:05:24.643Z,21.00
2022-10-05T02:08:00.835Z,14.13
2022-10-05T02:10:46.837Z,12.00
2022-10-05T02:13:21.730Z,11.45
2022-10-05T02:15:54.951Z,13.55
2022-10-05T02:18:29.232Z,16.70
2022-10-05T02:21:01.978Z,17.63
2022-10-05T02:23:36.138Z,15.95
2022-10-05T02:26:05.291Z,15.50
2022-10-05T02:28:45.326Z,22.33
2022-10-05T02:31:19.768Z,15.95
2022-10-05T02:33:48.975Z,15.20
2022-10-05T02:36:32.559Z,13.02
2022-10-05T02:39:21.225Z,16.67
2022-10-05T02:42:12.064Z,16.80
2022-10-05T02:45:07.623Z,14.52
2022-10-05T02:47:42.938Z,15.57
2022-10-05T02:50:36.535Z,17.83
2022-10-05T02:56:14.921Z,13.77
2022-10-05T02:58:51.851Z,16.98
2022-10-05T03:01:31.996Z,27.27
2022-10-05T03:04:11.180Z,18.33
2022-10-05T03:07:16.111Z,17.33
2022-10-05T03:10:00.920Z,21.20
2022-10-05T03:12:45.674Z,26.17
2022-10-05T03:15:45.451Z,18.00
2022-10-05T03:18:31.493Z,27.70
2022-10-05T03:21:23.830Z,31.25
2022-10-05T03:23:57.323Z,26.40
2022-10-05T03:29:25.881Z,20.25
2022-10-05T03:32:10.398Z,23.02
2022-10-05T03:35:08.378Z,24.88
2022-10-05T03:38:01.580Z,25.23
2022-10-05T03:40:47.164Z,26.98
2022-10-05T03:43:30.566Z,23.73
2022-10-05T03:46:23.393Z,23.02
2022-10-05T03:49:27.917Z,25.70
2022-10-05T03:52:15.670Z,22.92
2022-10-05T03:55:00.164Z,27.05
2022-10-05T03:57:33.821Z,22.45
2022-10-05T04:00:06.841Z,32.22
2022-10-05T04:03:11.458Z,27.30
2022-10-05T04:05:51.092Z,25.98
2022-10-05T04:08:33.092Z,31.80
2022-10-05T04:11:06.298Z,28.73
2022-10-05T04:13:52.814Z,25.08
2022-10-05T04:16:30.008Z,34.78
2022-10-05T04:19:22.363Z,37.67
2022-10-05T04:22:00.300Z,27.97
2022-10-05T04:24:28.338Z,26.42
2022-10-05T04:27:06.231Z,27.73
2022-10-05T04:29:53.858Z,43.08
2022-10-05T04:32:38.032Z,27.70
2022-10-05T04:35:22.282Z,28.08
2022-10-05T04:38:11.110Z,23.73
2022-10-05T04:40:50.650Z,28.75
2022-10-05T04:43:46.743Z,29.50
2022-10-05T04:46:33.089Z,29.05
2022-10-05T04:49:39.774Z,23.27
2022-10-05T04:52:34.660Z,30.20
2022-10-05T04:55:17.228Z,23.17
2022-10-05T04:57:57.974Z,20.20
2022-10-05T05:00:44.128Z,29.52
2022-10-05T05:03:47.160Z,20.33
2022-10-05T05:06:57.334Z,26.67
2022-10-05T05:10:02.312Z,20.65
2022-10-05T05:13:09.581Z,16.40
2022-10-05T05:15:54.297Z,16.23
2022-10-05T05:18:33.898Z,15.70
2022-10-05T05:21:17.126Z,12.27
2022-10-05T05:23:59.377Z,16.05
2022-10-05T05:26:38.871Z,14.65
2022-10-05T05:29:44.842Z,16.40
2022-10-05T05:32:24.280Z,16.70
2022-10-05T05:35:00.778Z,21.50
2022-10-05T05:37:53.766Z,17.85
2022-10-05T05:40:27.120Z,20.02
2022-10-05T05:45:42.381Z,17.65
2022-10-05T05:48:37.249Z,19.67
2022-10-05T05:51:05.188Z,15.05
2022-10-05T05:53:48.445Z,16.27
2022-10-05T05:56:21.626Z,28.15
2022-10-05T05:59:01.517Z,21.92
2022-10-05T06:01:56.094Z,17.15
2022-10-05T06:04:36.264Z,15.57
2022-10-05T06:07:06.538Z,15.32
2022-10-05T06:09:45.293Z,14.93
2022-10-05T06:12:35.007Z,17.48
2022-10-05T06:15:34.388Z,9.50
2022-10-05T06:18:11.237Z,20.17
2022-10-05T06:21:00.153Z,14.63
2022-10-05T06:23:39.463Z,10.82
2022-10-05T06:26:40.267Z,17.83
2022-10-05T06:29:23.142Z,13.68
2022-10-05T06:31:59.048Z,12.10
2022-10-05T06:34:56.788Z,15.35
2022-10-05T06:37:34.496Z,12.35
2022-10-05T06:40:24.863Z,11.85
2022-10-05T06:43:21.570Z,13.80
2022-10-05T06:46:31.946Z,9.65
2022-10-05T06:49:16.854Z,12.70
2022-10-05T06:52:28.138Z,12.13
2022-10-05T06:55:04.704Z,13.23
2022-10-05T06:57:58.746Z,9.65
2022-10-05T07:00:50.966Z,12.35
2022-10-05T07:03:47.445Z,10.13
2022-10-05T07:06:26.102Z,7.57
2022-10-05T07:09:21.320Z,13.48
2022-10-05T07:12:16.996Z,14.50
2022-10-05T07:15:24.730Z,13.20
2022-10-05T07:18:21.743Z,10.65
2022-10-05T07:21:14.025Z,7.80
2022-10-05T07:24:02.130Z,10.63
2022-10-05T07:26:45.878Z,16.38
2022-10-05T07:29:26.007Z,13.95
2022-10-05T07:32:22.599Z,11.30
2022-10-05T07:35:09.561Z,8.73
2022-10-05T07:37:58.070Z,6.82
2022-10-05T07:40:50.223Z,7.65
2022-10-05T07:44:02.022Z,5.57
2022-10-05T07:46:50.467Z,9.63
2022-10-05T07:49:49.934Z,7.57
2022-10-05T07:52:32.380Z,7.68
2022-10-05T07:55:39.154Z,6.78
2022-10-05T07:58:19.315Z,9.40
2022-10-05T08:01:09.150Z,8.77
2022-10-05T08:04:29.230Z,6.18
2022-10-05T08:07:00.493Z,5.07
2022-10-05T08:09:42.478Z,6.35
2022-10-05T08:12:33.647Z,5.45
2022-10-05T08:15:16.789Z,5.25
2022-10-05T08:20:43.445Z,5.47
2022-10-05T08:23:10.849Z,6.03
2022-10-05T08:25:47.341Z,7.38
2022-10-05T08:28:34.419Z,9.25
2022-10-05T08:31:25.305Z,5.82
2022-10-05T08:34:05.096Z,6.43
2022-10-05T08:36:58.967Z,7.13
2022-10-05T08:39:32.141Z,8.70
2022-10-05T08:42:16.835Z,9.15
2022-10-05T08:45:09.414Z,6.55
2022-10-05T08:48:06.956Z,6.65
2022-10-05T08:51:14.359Z,8.13
2022-10-05T08:54:09.435Z,5.55
2022-10-05T08:57:13.788Z,9.13
2022-10-05T08:59:47.100Z,9.93
2022-10-05T09:02:29.385Z,6.72
2022-10-05T09:05:18.629Z,8.33
2022-10-05T09:07:45.997Z,13.32
2022-10-05T09:10:33.140Z,8.38
2022-10-05T09:13:19.106Z,8.13
2022-10-05T09:16:24.103Z,9.02
2022-10-05T09:19:37.969Z,5.35
2022-10-05T09:23:07.091Z,5.30
2022-10-05T09:25:44.263Z,10.45
2022-10-05T09:28:42.755Z,10.65
2022-10-05T09:31:27.149Z,10.45
2022-10-05T09:34:27.878Z,7.80
2022-10-05T09:37:18.426Z,6.65
2022-10-05T09:40:03.979Z,8.27
2022-10-05T09:42:46.514Z,8.05
2022-10-05T09:45:28.713Z,7.18
2022-10-05T09:48:13.215Z,7.67
2022-10-05T09:51:05.238Z,8.30
2022-10-05T09:53:51.393Z,12.23
2022-10-05T09:56:44.109Z,7.93
2022-10-05T09:59:27.555Z,10.40
2022-10-05T10:01:58.254Z,9.52
2022-10-05T10:04:44.041Z,7.85
2022-10-05T10:07:29.999Z,7.63
2022-10-05T10:10:15.887Z,5.68
2022-10-05T10:13:00.819Z,4.57
2022-10-05T10:15:46.120Z,8.07
2022-10-05T10:18:16.343Z,5.25
2022-10-05T10:20:46.534Z,3.17
2022-10-05T10:23:41.409Z,6.05
2022-10-05T10:26:36.900Z,7.38
2022-10-05T10:29:07.262Z,5.10
2022-10-05T10:31:52.864Z,7.38
2022-10-05T10:34:41.697Z,5.72
2022-10-05T10:37:35.747Z,5.38
2022-10-05T10:40:26.363Z,3.15
2022-10-05T10:42:53.997Z,4.55
2022-10-05T10:45:27.547Z,4.75
2022-10-05T10:51:04.714Z,5.45
2022-10-05T10:53:38.121Z,6.85
2022-10-05T10:56:18.160Z,7.13
2022-10-05T10:59:04.167Z,6.30
2022-10-05T11:01:50.906Z,5.88
2022-10-05T11:04:55.232Z,6.03
2022-10-05T11:07:43.267Z,6.03
2022-10-05T11:10:47.791Z,4.10
2022-10-05T11:13:45.582Z,7.68
2022-10-05T11:16:56.924Z,7.13
2022-10-05T11:20:02.948Z,8.50
2022-10-05T11:22:51.099Z,6.95
2022-10-05T11:25:27.967Z,9.23
2022-10-05T11:28:14.514Z,7.80
2022-10-05T11:31:12.179Z,16.23
2022-10-05T11:34:01.324Z,11.52
2022-10-05T11:37:05.749Z,9.57
2022-10-05T11:39:43.370Z,9.38
2022-10-05T11:42:28.986Z,7.80
2022-10-05T11:45:24.577Z,9.77
2022-10-05T11:48:13.504Z,7.93
2022-10-05T11:51:03.794Z,11.48
2022-10-05T11:53:43.393Z,9.82
2022-10-05T11:56:22.107Z,13.98
2022-10-05T11:59:03.851Z,12.40
2022-10-05T12:01:56.026Z,7.40
2022-10-05T12:04:45.651Z,15.60
2022-10-05T12:07:35.617Z,12.02
2022-10-05T12:10:28.304Z,13.32
2022-10-05T12:13:21.580Z,12.93
2022-10-05T12:16:07.733Z,7.00
2022-10-05T12:18:39.474Z,7.93
2022-10-05T12:21:25.099Z,15.63
2022-10-05T12:23:59.296Z,9.18
2022-10-05T12:26:53.428Z,10.38
2022-10-05T12:30:03.856Z,7.20
2022-10-05T12:33:02.555Z,6.25
2022-10-05T12:35:56.256Z,9.52
2022-10-05T12:38:30.641Z,10.38
2022-10-05T12:41:07.532Z,7.30
2022-10-05T12:43:43.848Z,9.50
2022-10-05T12:46:46.085Z,8.35
2022-10-05T12:49:24.962Z,6.63
2022-10-05T12:52:05.321Z,7.82
2022-10-05T12:55:14.549Z,7.90
2022-10-05T12:58:05.635Z,7.68
2022-10-05T13:00:39.587Z,5.35
2022-10-05T13:03:25.207Z,6.18
2022-10-05T13:05:52.619Z,4.65
2022-10-05T13:08:42.140Z,9.82
2022-10-05T13:11:18.883Z,8.75
2022-10-05T13:14:05.531Z,9.90
2022-10-05T13:16:54.807Z,9.93
2022-10-05T13:19:39.557Z,7.30
2022-10-05T13:22:37.014Z,6.90
2022-10-05T13:25:35.226Z,6.43
2022-10-05T13:28:02.639Z,4.50
2022-10-05T13:30:30.367Z,7.38
2022-10-05T13:33:06.785Z,4.45
2022-10-05T13:35:57.417Z,5.70
2022-10-05T13:38:42.690Z,8.77
2022-10-05T13:41:28.396Z,9.70
2022-10-05T13:44:24.974Z,7.57
2022-10-05T13:47:19.535Z,6.75
2022-10-05T13:49:58.115Z,6.00
2022-10-05T13:53:10.817Z,11.23
2022-10-05T13:55:57.565Z,9.82
2022-10-05T13:58:40.138Z,8.30
2022-10-05T14:01:26.976Z,10.07
2022-10-05T14:04:42.364Z,9.57
2022-10-05T14:07:30.635Z,11.55
2022-10-05T14:10:02.173Z,13.07
2022-10-05T14:12:40.601Z,14.43
2022-10-05T14:15:28.548Z,15.32
2022-10-05T14:17:56.258Z,12.63
2022-10-05T14:20:37.551Z,18.70
2022-10-05T14:23:18.475Z,11.52
2022-10-05T14:25:54.801Z,12.57
2022-10-05T14:28:39.820Z,7.28
2022-10-05T14:31:28.163Z,4.90
2022-10-05T14:33:55.910Z,9.48
2022-10-05T14:36:40.345Z,6.35
2022-10-05T14:39:13.248Z,6.40
2022-10-05T14:41:49.543Z,10.87
2022-10-05T14:47:23.631Z,8.32
2022-10-05T14:50:10.976Z,10.73
2022-10-05T14:52:41.376Z,7.13
2022-10-05T14:55:38.288Z,6.22
2022-10-05T14:58:43.499Z,7.65
2022-10-05T15:01:26.656Z,6.22
2022-10-05T15:09:19.564Z,8.02
2022-10-05T15:11:54.726Z,6.40
2022-10-05T15:14:27.510Z,9.63
2022-10-05T15:17:04.836Z,9.40
2022-10-05T15:19:48.498Z,9.75
2022-10-05T15:22:24.057Z,10.07
2022-10-05T15:25:10.895Z,10.25
2022-10-05T15:27:50.699Z,10.07
2022-10-05T15:30:19.114Z,8.30
2022-10-05T15:33:14.244Z,5.63
2022-10-05T15:36:16.099Z,6.40
2022-10-05T15:39:11.288Z,8.45
2022-10-05T15:42:00.433Z,7.03
2022-10-05T15:44:49.659Z,10.13
2022-10-05T15:47:26.031Z,9.05
2022-10-05T15:50:05.826Z,10.60
2022-10-05T15:52:48.441Z,7.25
2022-10-05T15:55:15.833Z,6.13
2022-10-05T15:57:45.857Z,10.02
2022-10-05T16:00:19.337Z,9.52
2022-10-05T16:03:06.884Z,6.13
2022-10-05T16:06:13.804Z,8.95
2022-10-05T16:08:56.041Z,7.35
2022-10-05T16:11:37.073Z,8.93
2022-10-05T16:14:22.652Z,7.82
2022-10-05T16:17:01.218Z,8.20
2022-10-05T16:19:36.708Z,7.57
2022-10-05T16:22:43.460Z,9.98
2022-10-05T16:25:17.987Z,9.52
2022-10-05T16:27:53.135Z,8.20
2022-10-05T16:30:23.354Z,8.18
2022-10-05T16:33:18.869Z,7.85
2022-10-05T16:35:59.342Z,10.55
2022-10-05T16:38:58.084Z,13.95
2022-10-05T16:41:35.735Z,11.23
2022-10-05T16:44:36.962Z,12.90
2022-10-05T16:47:35.226Z,11.38
2022-10-05T16:50:20.420Z,14.05
2022-10-05T16:52:55.407Z,9.13
2022-10-05T16:55:34.419Z,10.73
2022-10-05T16:58:05.982Z,6.55
2022-10-05T17:00:52.201Z,9.80
2022-10-05T17:03:57.433Z,11.95
2022-10-05T17:06:31.056Z,7.40
2022-10-05T17:09:01.783Z,7.32
2022-10-05T17:11:42.880Z,7.80
2022-10-05T17:14:35.348Z,6.57
2022-10-05T17:17:49.374Z,10.60
2022-10-05T17:20:43.906Z,7.15
2022-10-05T17:23:20.897Z,6.70
2022-10-05T17:25:56.768Z,7.32
2022-10-05T17:28:41.502Z,10.82
2022-10-05T17:31:16.646Z,10.07
2022-10-05T17:33:59.479Z,8.25
2022-10-05T17:36:39.445Z,9.05
2022-10-05T17:39:18.569Z,9.45
2022-10-05T17:41:47.138Z,8.02
2022-10-05T17:44:16.479Z,8.43
2022-10-05T17:46:52.070Z,6.93
2022-10-05T17:49:34.671Z,7.03
2022-10-05T17:52:26.955Z,8.90
2022-10-05T17:55:15.136Z,8.35
2022-10-05T17:57:42.731Z,8.38
2022-10-05T18:00:56.276Z,6.60
2022-10-05T18:03:50.722Z,6.85
2022-10-05T18:06:34.909Z,8.48
2022-10-05T18:09:17.296Z,4.97
2022-10-05T18:12:06.335Z,7.35
2022-10-05T18:14:52.744Z,5.47
2022-10-05T18:17:42.264Z,8.20
2022-10-05T18:20:24.530Z,7.18
2022-10-05T18:22:54.488Z,6.70
2022-10-05T18:25:40.232Z,9.10
2022-10-05T18:28:52.169Z,5.20
2022-10-05T18:31:55.467Z,4.13
2022-10-05T18:34:43.846Z,5.32
2022-10-05T18:37:23.400Z,3.65
2022-10-05T18:39:57.095Z,7.22
2022-10-05T18:42:36.778Z,4.72
2022-10-05T18:45:09.490Z,4.88
2022-10-05T18:47:37.214Z,3.70
2022-10-05T18:50:25.972Z,4.80
2022-10-05T18:53:05.863Z,3.85
2022-10-05T18:55:44.169Z,5.50
2022-10-05T18:58:22.413Z,4.25
2022-10-05T19:01:17.093Z,7.90
2022-10-05T19:03:47.732Z,3.25
2022-10-05T19:06:24.617Z,4.35
2022-10-05T19:09:22.513Z,5.40
2022-10-05T19:12:04.357Z,3.20
2022-10-05T19:14:44.401Z,4.20
2022-10-05T19:17:20.875Z,4.15
2022-10-05T19:20:00.421Z,4.53
2022-10-05T19:22:58.721Z,4.70
2022-10-05T19:25:49.911Z,4.28
2022-10-05T19:28:41.769Z,5.13
2022-10-05T19:31:12.315Z,5.85
2022-10-05T19:34:04.108Z,6.03
2022-10-05T19:36:49.205Z,7.00
2022-10-05T19:39:42.857Z,4.57
2022-10-05T19:42:49.396Z,5.85
2022-10-05T19:45:23.236Z,6.00
2022-10-05T19:48:09.210Z,6.50
2022-10-05T19:50:38.692Z,7.50
2022-10-05T19:53:14.260Z,4.90
2022-10-05T19:55:43.988Z,4.18
2022-10-05T19:58:27.317Z,5.32
2022-10-05T20:00:54.985Z,5.13
2022-10-05T20:03:37.022Z,7.20
2022-10-05T20:06:06.802Z,6.13
2022-10-05T20:08:44.087Z,4.68
2022-10-05T20:11:17.020Z,6.90
2022-10-05T20:13:53.679Z,5.28
2022-10-05T20:16:46.643Z,7.82
2022-10-05T20:19:36.514Z,6.60
2022-10-05T20:22:28.555Z,6.80
2022-10-05T20:25:18.996Z,5.77
2022-10-05T20:27:49.426Z,5.75
2022-10-05T20:30:34.172Z,5.93
2022-10-05T20:33:02.177Z,6.20
2022-10-05T20:35:30.949Z,5.90
2022-10-05T20:38:00.482Z,6.28
2022-10-05T20:40:31.438Z,6.22
2022-10-05T20:42:59.221Z,7.85
2022-10-05T20:45:26.858Z,6.95
2022-10-05T20:47:54.334Z,4.22
2022-10-05T20:50:22.508Z,6.22
2022-10-05T20:52:49.980Z,7.95
2022-10-05T20:55:17.573Z,5.13
2022-10-05T20:57:46.341Z,5.13
2022-10-05T21:00:14.341Z,5.63
2022-10-05T21:02:41.836Z,7.03
2022-10-05T21:05:09.946Z,4.75
2022-10-05T21:07:37.498Z,5.47
2022-10-05T21:10:05.453Z,4.93
2022-10-05T21:12:34.322Z,6.00
2022-10-05T21:15:04.964Z,5.65
2022-10-05T21:17:35.385Z,6.82
2022-10-05T21:20:02.800Z,5.93
2022-10-05T21:22:31.488Z,5.10
2022-10-05T21:24:59.016Z,5.68
2022-10-05T21:27:26.406Z,6.25
2022-10-05T21:29:53.954Z,7.10
2022-10-05T21:32:21.283Z,8.55
2022-10-05T21:34:48.787Z,9.55
2022-10-05T21:37:16.334Z,9.90
2022-10-05T21:39:44.150Z,6.82
2022-10-05T21:42:11.551Z,6.00
2022-10-05T21:44:39.037Z,7.82
2022-10-05T21:47:07.180Z,6.65
2022-10-05T21:49:39.927Z,6.35
2022-10-05T21:52:07.400Z,6.90
2022-10-05T21:54:35.318Z,6.00
2022-10-05T21:57:03.093Z,6.05
2022-10-05T21:59:34.613Z,6.70
2022-10-05T22:02:02.686Z,5.60
2022-10-05T22:04:30.054Z,6.22
2022-10-05T22:06:57.481Z,5.28
2022-10-05T22:09:24.983Z,5.15
2022-10-05T22:11:52.500Z,5.45
2022-10-05T22:14:19.957Z,6.40
2022-10-05T22:16:47.827Z,4.45
2022-10-05T22:19:19.446Z,7.18
2022-10-05T22:21:47.209Z,5.47
2022-10-05T22:24:14.860Z,5.72
2022-10-05T22:26:45.004Z,5.30
2022-10-05T22:29:14.186Z,5.88
2022-10-05T22:31:42.425Z,5.15
2022-10-05T22:34:09.950Z,4.80
2022-10-05T22:36:37.820Z,5.20
2022-10-05T22:39:05.325Z,4.78
2022-10-05T22:41:32.772Z,5.22
2022-10-05T22:44:00.918Z,6.28
2022-10-05T22:46:28.605Z,4.60
2022-10-05T22:48:56.131Z,4.65
2022-10-05T22:51:23.660Z,7.72
2022-10-05T22:53:51.177Z,7.30
2022-10-05T22:56:18.788Z,4.10
2022-10-05T22:58:46.655Z,6.68
2022-10-05T23:01:18.922Z,4.32
2022-10-05T23:03:47.060Z,4.35
2022-10-05T23:06:17.789Z,6.53
2022-10-05T23:08:46.383Z,4.93
2022-10-05T23:11:19.520Z,4.82
2022-10-05T23:13:46.953Z,4.38
2022-10-05T23:16:17.774Z,5.97
2022-10-05T23:18:48.957Z,3.83
2022-10-05T23:21:17.197Z,6.10
2022-10-05T23:23:51.276Z,4.57
2022-10-05T23:26:21.688Z,5.18
2022-10-05T23:28:50.342Z,4.55
2022-10-05T23:31:30.374Z,4.30
2022-10-05T23:33:57.961Z,7.88
2022-10-05T23:36:28.148Z,3.63
2022-10-05T23:38:55.617Z,3.10
2022-10-05T23:41:23.053Z,3.33
2022-10-05T23:43:50.880Z,4.05
2022-10-05T23:46:18.516Z,4.15
2022-10-05T23:48:46.072Z,4.20
2022-10-05T23:51:14.729Z,9.25
2022-10-05T23:53:42.233Z,4.30
2022-10-05T23:56:09.606Z,5.45
2022-10-05T23:58:37.233Z,3.22
